Time;durP1;ratioP1;P1;durP2;ratioP2;P2;SDS_P1;SDS_P2;PMS_P1;PMS_P2;Temp;Humidity;BMP_temperature;BMP_pressure;BME280_temperature;BME280_humidity;BME280_pressure;Samples;Min_cycle;Max_cycle;Signal;HPM_P1;HPM_P2
2023/09/24 14:18:58;;;;;;;5.28;2.60;;;;;;;;;;4636067;27;15054695;-85
2023/09/24 14:21:30;;;;;;;3.97;2.38;;;;;;;;;;5090065;28;20053;-84
2023/09/24 14:24:12;;;;;;;4.00;2.58;;;;;;;;;;5092464;28;20113;-84
2023/09/24 14:26:38;;;;;;;6.38;2.55;;;;;;;;;;5105798;28;20047;-84
2023/09/24 14:29:13;;;;;;;4.63;2.60;;;;;;;;;;5103782;28;20051;-84
2023/09/24 14:31:48;;;;;;;6.32;2.47;;;;;;;;;;5101524;28;20098;-84
2023/09/24 14:34:14;;;;;;;4.47;2.38;;;;;;;;;;5104721;28;20135;-84
2023/09/24 14:36:41;;;;;;;3.38;2.45;;;;;;;;;;5088359;28;20127;-84
2023/09/24 14:39:10;;;;;;;4.38;2.50;;;;;;;;;;5105999;28;20051;-83
2023/09/24 14:41:36;;;;;;;5.32;2.40;;;;;;;;;;5103991;28;20093;-84
2023/09/24 14:44:04;;;;;;;4.38;2.42;;;;;;;;;;5103473;28;20040;-84
2023/09/24 14:46:34;;;;;;;3.85;2.40;;;;;;;;;;5106199;28;20114;-85
2023/09/24 14:49:01;;;;;;;3.28;2.40;;;;;;;;;;5083816;28;20043;-83
2023/09/24 14:51:27;;;;;;;5.15;2.53;;;;;;;;;;5110117;27;20044;-84
2023/09/24 14:53:58;;;;;;;3.63;2.50;;;;;;;;;;5147650;27;20496;-84
2023/09/24 14:56:25;;;;;;;4.78;3.63;;;;;;;;;;5147944;27;20051;-80
2023/09/24 14:58:51;;;;;;;5.25;2.60;;;;;;;;;;5142738;27;20046;-80
2023/09/24 15:01:17;;;;;;;3.13;2.45;;;;;;;;;;5123993;27;20066;-80
2023/09/24 15:03:46;;;;;;;4.88;2.50;;;;;;;;;;5139353;27;20047;-81
2023/09/24 15:06:13;;;;;;;5.38;2.30;;;;;;;;;;5147462;27;20074;-79
2023/09/24 15:08:41;;;;;;;4.75;2.30;;;;;;;;;;5166190;27;20404;-81
2023/09/24 15:11:08;;;;;;;3.88;2.55;;;;;;;;;;5170455;27;20072;-80
2023/09/24 15:13:37;;;;;;;4.28;2.30;;;;;;;;;;5167210;27;20047;-80
2023/09/24 15:16:06;;;;;;;4.10;2.22;;;;;;;;;;5157418;27;20131;-79
2023/09/24 15:18:33;;;;;;;4.50;2.40;;;;;;;;;;5151853;27;20051;-80
2023/09/24 15:20:59;;;;;;;5.72;2.50;;;;;;;;;;5164723;27;20049;-80
2023/09/24 15:23:27;;;;;;;3.75;2.42;;;;;;;;;;5167669;27;20074;-80
2023/09/24 15:25:53;;;;;;;11.05;3.15;;;;;;;;;;5161409;27;20054;-79
2023/09/24 15:28:19;;;;;;;3.42;2.20;;;;;;;;;;5139370;27;20391;-80
2023/09/24 15:30:48;;;;;;;4.35;2.40;;;;;;;;;;5142377;27;20513;-80
2023/09/24 15:33:17;;;;;;;4.43;2.38;;;;;;;;;;5151873;27;20121;-80
2023/09/24 15:35:43;;;;;;;5.30;3.00;;;;;;;;;;5130907;27;20118;-80
2023/09/24 15:38:10;;;;;;;3.60;2.72;;;;;;;;;;5111823;27;20184;-79
2023/09/24 15:40:37;;;;;;;5.10;2.55;;;;;;;;;;5151123;27;20042;-80
2023/09/24 15:43:04;;;;;;;3.17;2.20;;;;;;;;;;5145395;27;20454;-79
2023/09/24 15:45:30;;;;;;;4.00;2.20;;;;;;;;;;5141228;27;20528;-79
2023/09/24 15:47:56;;;;;;;4.25;2.58;;;;;;;;;;5127461;27;20043;-78
2023/09/24 15:50:25;;;;;;;2.92;2.35;;;;;;;;;;5130923;27;20046;-83
2023/09/24 15:52:51;;;;;;;3.15;2.20;;;;;;;;;;5134865;27;20042;-80
2023/09/24 15:55:17;;;;;;;17.92;3.50;;;;;;;;;;5154681;27;20038;-78
2023/09/24 15:57:43;;;;;;;6.18;2.30;;;;;;;;;;5152401;27;20042;-78
2023/09/24 16:00:10;;;;;;;3.38;2.30;;;;;;;;;;5153433;27;20129;-78
2023/09/24 16:02:39;;;;;;;3.25;2.03;;;;;;;;;;5145106;27;20038;-77
2023/09/24 16:05:07;;;;;;;6.00;2.80;;;;;;;;;;5151569;27;20091;-76
2023/09/24 16:07:33;;;;;;;4.68;2.53;;;;;;;;;;5151807;27;20504;-77
2023/09/24 16:09:59;;;;;;;3.38;2.28;;;;;;;;;;5134202;27;20087;-77
2023/09/24 16:12:25;;;;;;;3.92;2.40;;;;;;;;;;5146195;27;20043;-78
2023/09/24 16:14:51;;;;;;;3.45;2.28;;;;;;;;;;5133846;27;20043;-78
2023/09/24 16:17:17;;;;;;;5.20;2.63;;;;;;;;;;5150911;27;20037;-77
2023/09/24 16:19:43;;;;;;;5.38;2.60;;;;;;;;;;5126188;27;20095;-76
2023/09/24 16:22:09;;;;;;;3.58;2.47;;;;;;;;;;5138738;27;20050;-76
2023/09/24 16:24:35;;;;;;;2.90;2.20;;;;;;;;;;5150673;27;20035;-76
2023/09/24 16:27:01;;;;;;;4.30;2.40;;;;;;;;;;5148646;27;20054;-75
2023/09/24 16:29:27;;;;;;;2.42;2.17;;;;;;;;;;5143762;27;20478;-77
2023/09/24 16:31:53;;;;;;;7.85;3.92;;;;;;;;;;5148436;27;20042;-77
2023/09/24 16:34:22;;;;;;;15.82;3.65;;;;;;;;;;5123536;27;20075;-78
2023/09/24 16:36:48;;;;;;;3.92;2.60;;;;;;;;;;5148252;27;20042;-80
2023/09/24 16:39:14;;;;;;;4.05;2.45;;;;;;;;;;5152758;27;20051;-78
2023/09/24 16:41:41;;;;;;;2.72;2.15;;;;;;;;;;5146649;27;20030;-78
2023/09/24 16:44:07;;;;;;;4.03;2.22;;;;;;;;;;5135229;27;20375;-79
2023/09/24 16:46:33;;;;;;;5.35;2.42;;;;;;;;;;5141271;27;20031;-78
2023/09/24 16:49:02;;;;;;;4.22;2.03;;;;;;;;;;5144211;27;20041;-78
2023/09/24 16:51:28;;;;;;;4.28;2.38;;;;;;;;;;5150081;27;20042;-78
2023/09/24 16:53:55;;;;;;;6.40;2.45;;;;;;;;;;5155234;27;20424;-77
2023/09/24 16:56:21;;;;;;;5.28;2.50;;;;;;;;;;5139176;27;20452;-78
2023/09/24 16:58:47;;;;;;;4.68;2.20;;;;;;;;;;5139332;27;20095;-77
2023/09/24 17:01:20;;;;;;;4.00;2.30;;;;;;;;;;5147761;27;20042;-78
2023/09/24 17:03:47;;;;;;;3.88;2.60;;;;;;;;;;5149476;27;20482;-80
2023/09/24 17:06:14;;;;;;;4.38;2.30;;;;;;;;;;5141187;27;20038;-77
2023/09/24 17:08:40;;;;;;;3.58;2.20;;;;;;;;;;5136192;27;20481;-78
2023/09/24 17:11:07;;;;;;;5.00;2.30;;;;;;;;;;5150560;27;20034;-78
2023/09/24 17:13:33;;;;;;;5.57;3.30;;;;;;;;;;5148822;27;20650;-77
2023/09/24 17:16:08;;;;;;;5.18;3.35;;;;;;;;;;5144402;27;20035;-78
2023/09/24 17:18:35;;;;;;;3.78;2.50;;;;;;;;;;5150905;27;20059;-78
2023/09/24 17:21:01;;;;;;;4.35;2.50;;;;;;;;;;5147578;27;20053;-77
2023/09/24 17:23:27;;;;;;;4.95;3.00;;;;;;;;;;5134653;27;20443;-78
2023/09/24 17:25:53;;;;;;;4.55;2.50;;;;;;;;;;5148414;27;20140;-77
2023/09/24 17:28:19;;;;;;;4.25;2.65;;;;;;;;;;5151564;27;20082;-78
2023/09/24 17:30:48;;;;;;;5.82;2.75;;;;;;;;;;5142588;27;20026;-78
2023/09/24 17:33:17;;;;;;;3.40;2.28;;;;;;;;;;5149247;27;20049;-77
2023/09/24 17:35:50;;;;;;;4.53;2.55;;;;;;;;;;5121930;27;20039;-77
2023/09/24 17:38:16;;;;;;;3.30;2.55;;;;;;;;;;5150382;27;20045;-76
2023/09/24 17:40:44;;;;;;;5.07;2.58;;;;;;;;;;5142554;27;20746;-78
2023/09/24 17:43:11;;;;;;;7.22;3.15;;;;;;;;;;5152690;27;20046;-74
2023/09/24 17:45:37;;;;;;;6.72;4.72;;;;;;;;;;5145562;27;20085;-83
2023/09/24 17:48:06;;;;;;;6.53;3.88;;;;;;;;;;5138755;27;20047;-79
2023/09/24 17:51:03;;;;;;;4.40;2.50;;;;;;;;;;5099948;27;20503;-77
2023/09/24 17:53:32;;;;;;;4.37;3.00;;;;;;;;;;5130750;27;20055;-78
2023/09/24 17:56:03;;;;;;;6.90;5.28;;;;;;;;;;5142476;27;20045;-77
2023/09/24 17:58:33;;;;;;;5.03;3.92;;;;;;;;;;5150323;27;20062;-77
2023/09/24 18:01:19;;;;;;;4.25;2.95;;;;;;;;;;5131834;27;20090;-77
2023/09/24 18:04:04;;;;;;;4.47;3.10;;;;;;;;;;5131353;27;20142;-77
2023/09/24 18:06:32;;;;;;;7.28;4.47;;;;;;;;;;5132062;27;20051;-77
2023/09/24 18:09:04;;;;;;;6.20;4.32;;;;;;;;;;5133732;27;20483;-78
2023/09/24 18:11:31;;;;;;;14.88;10.40;;;;;;;;;;5113680;28;20058;-77
2023/09/24 18:13:58;;;;;;;6.32;2.70;;;;;;;;;;5113566;27;20047;-78
2023/09/24 18:16:29;;;;;;;4.40;3.00;;;;;;;;;;5123155;27;20051;-78
2023/09/24 18:19:09;;;;;;;3.38;2.50;;;;;;;;;;5144267;27;20054;-78
2023/09/24 18:21:42;;;;;;;5.20;2.72;;;;;;;;;;5149810;27;20047;-78
2023/09/24 18:24:15;;;;;;;4.93;2.80;;;;;;;;;;5152871;27;20118;-78
2023/09/24 18:26:41;;;;;;;3.90;2.75;;;;;;;;;;5115697;27;20479;-78
2023/09/24 18:29:07;;;;;;;4.82;2.60;;;;;;;;;;5127796;27;20054;-78
2023/09/24 18:31:35;;;;;;;4.28;2.40;;;;;;;;;;5090706;28;20199;-78
2023/09/24 18:34:02;;;;;;;5.40;2.60;;;;;;;;;;5105945;28;20051;-78
2023/09/24 18:36:31;;;;;;;4.15;2.63;;;;;;;;;;5060702;28;20044;-78
2023/09/24 18:38:59;;;;;;;6.68;3.15;;;;;;;;;;5074424;28;20051;-78
2023/09/24 18:41:36;;;;;;;5.35;2.85;;;;;;;;;;5052035;28;20056;-78
2023/09/24 18:44:03;;;;;;;3.55;2.92;;;;;;;;;;5044372;28;20053;-78
2023/09/24 18:46:32;;;;;;;3.47;2.78;;;;;;;;;;5052034;28;20048;-78
2023/09/24 18:49:00;;;;;;;3.90;2.90;;;;;;;;;;5050655;28;20048;-78
2023/09/24 18:51:28;;;;;;;6.22;3.35;;;;;;;;;;5061680;28;20060;-78
2023/09/24 18:53:58;;;;;;;7.65;3.40;;;;;;;;;;5057484;28;20131;-78
2023/09/24 18:56:36;;;;;;;5.90;3.30;;;;;;;;;;5049906;28;20515;-78
2023/09/24 18:59:03;;;;;;;3.88;3.20;;;;;;;;;;5034761;28;20060;-78
2023/09/24 19:01:36;;;;;;;4.43;3.00;;;;;;;;;;5038341;28;20056;-78
2023/09/24 19:04:32;;;;;;;4.90;3.20;;;;;;;;;;5097464;28;20056;-78
2023/09/24 19:07:06;;;;;;;7.70;4.15;;;;;;;;;;5106299;28;20047;-78
2023/09/24 19:09:42;;;;;;;8.07;3.53;;;;;;;;;;5108859;28;20516;-78
2023/09/24 19:12:11;;;;;;;4.30;3.15;;;;;;;;;;5092729;28;20534;-78
2023/09/24 19:14:57;;;;;;;4.03;3.15;;;;;;;;;;5036682;28;20382;-78
2023/09/24 19:17:23;;;;;;;5.75;3.20;;;;;;;;;;5050007;28;20052;-78
2023/09/24 19:19:55;;;;;;;4.70;3.30;;;;;;;;;;5005606;28;20051;-78
2023/09/24 19:22:24;;;;;;;4.75;3.03;;;;;;;;;;4996540;28;20450;-78
2023/09/24 19:25:13;;;;;;;5.80;3.53;;;;;;;;;;5008838;28;20089;-79
2023/09/24 19:27:46;;;;;;;5.60;3.00;;;;;;;;;;5012186;28;20045;-78
2023/09/24 19:30:18;;;;;;;3.75;3.05;;;;;;;;;;5007072;28;20029;-78
2023/09/24 19:32:53;;;;;;;5.00;3.20;;;;;;;;;;5011755;28;20180;-78
2023/09/24 19:35:26;;;;;;;4.78;3.22;;;;;;;;;;4991141;28;20042;-78
2023/09/24 19:38:04;;;;;;;4.35;3.25;;;;;;;;;;5004925;28;20105;-78
2023/09/24 19:40:42;;;;;;;5.18;3.30;;;;;;;;;;5010652;28;20462;-78
2023/09/24 19:43:08;;;;;;;5.57;2.95;;;;;;;;;;5008619;28;20514;-78
2023/09/24 19:45:34;;;;;;;5.18;3.13;;;;;;;;;;5025597;28;20056;-78
2023/09/24 19:48:00;;;;;;;5.85;3.25;;;;;;;;;;5050432;28;20128;-78
2023/09/24 19:50:27;;;;;;;5.60;3.47;;;;;;;;;;5031659;28;20520;-78
2023/09/24 19:52:53;;;;;;;6.60;3.25;;;;;;;;;;5051225;28;20393;-78
2023/09/24 19:55:19;;;;;;;4.80;3.20;;;;;;;;;;5032441;28;20083;-78
2023/09/24 19:57:45;;;;;;;6.22;3.67;;;;;;;;;;5048648;28;20076;-79
2023/09/24 20:00:12;;;;;;;7.50;3.05;;;;;;;;;;5045806;28;20083;-79
2023/09/24 20:02:38;;;;;;;6.50;3.55;;;;;;;;;;5049833;28;20488;-78
2023/09/24 20:05:05;;;;;;;5.47;3.47;;;;;;;;;;5010246;28;20053;-75
2023/09/24 20:07:33;;;;;;;5.57;3.30;;;;;;;;;;5036220;28;20055;-77
2023/09/24 20:09:59;;;;;;;5.53;3.67;;;;;;;;;;5012376;28;20116;-74
2023/09/24 20:12:28;;;;;;;4.47;3.30;;;;;;;;;;5046580;28;20570;-75
2023/09/24 20:14:54;;;;;;;4.85;3.50;;;;;;;;;;5046763;28;20053;-73
2023/09/24 20:17:20;;;;;;;5.75;3.40;;;;;;;;;;5045818;28;20056;-76
2023/09/24 20:19:47;;;;;;;4.72;3.47;;;;;;;;;;5055574;28;20144;-76
2023/09/24 20:22:13;;;;;;;5.38;3.42;;;;;;;;;;5070402;28;20090;-76
2023/09/24 20:24:39;;;;;;;3.85;3.22;;;;;;;;;;5110016;27;20046;-75
2023/09/24 20:27:06;;;;;;;4.03;3.30;;;;;;;;;;5135230;27;20049;-75
2023/09/24 20:29:41;;;;;;;5.25;3.15;;;;;;;;;;5134048;27;20059;-75
2023/09/24 20:32:10;;;;;;;5.65;3.13;;;;;;;;;;5135089;27;20128;-73
2023/09/24 20:34:36;;;;;;;3.75;3.03;;;;;;;;;;5152306;27;20046;-74
2023/09/24 20:37:02;;;;;;;6.40;3.17;;;;;;;;;;5155429;27;20050;-74
2023/09/24 20:39:29;;;;;;;4.40;3.22;;;;;;;;;;5144808;27;20039;-74
2023/09/24 20:41:56;;;;;;;6.22;3.10;;;;;;;;;;5132629;27;20060;-75
2023/09/24 20:44:30;;;;;;;4.75;3.30;;;;;;;;;;5144570;27;20043;-74
2023/09/24 20:46:59;;;;;;;5.47;3.45;;;;;;;;;;5135804;27;20082;-74
2023/09/24 20:49:26;;;;;;;6.45;3.40;;;;;;;;;;5131518;27;20039;-74
2023/09/24 20:51:52;;;;;;;6.85;3.85;;;;;;;;;;5133138;27;20046;-75
2023/09/24 20:54:18;;;;;;;5.47;3.50;;;;;;;;;;5134312;27;20042;-75
2023/09/24 20:56:44;;;;;;;4.75;3.50;;;;;;;;;;5146864;27;20512;-75
2023/09/24 20:59:21;;;;;;;4.30;3.30;;;;;;;;;;5130342;27;20058;-74
2023/09/24 21:01:47;;;;;;;5.38;3.30;;;;;;;;;;5124069;27;20063;-74
2023/09/24 21:04:13;;;;;;;4.90;3.30;;;;;;;;;;5136561;27;20057;-74
2023/09/24 21:06:43;;;;;;;4.32;2.97;;;;;;;;;;5145214;27;20068;-75
2023/09/24 21:09:12;;;;;;;5.10;3.08;;;;;;;;;;5132146;27;20031;-75
2023/09/24 21:11:42;;;;;;;5.63;3.22;;;;;;;;;;5124912;27;20047;-75
2023/09/24 21:14:17;;;;;;;5.10;3.47;;;;;;;;;;5141041;27;20087;-75
2023/09/24 21:16:46;;;;;;;5.38;3.40;;;;;;;;;;5131969;27;20047;-75
2023/09/24 21:19:12;;;;;;;5.57;3.22;;;;;;;;;;5151387;27;20103;-75
2023/09/24 21:21:38;;;;;;;4.15;2.92;;;;;;;;;;5132925;27;20439;-74
2023/09/24 21:24:05;;;;;;;7.65;3.50;;;;;;;;;;5147233;27;20042;-75
2023/09/24 21:26:38;;;;;;;4.82;3.33;;;;;;;;;;5122233;27;20470;-76
2023/09/24 21:29:31;;;;;;;5.57;3.30;;;;;;;;;;5141928;27;20161;-75
2023/09/24 21:32:04;;;;;;;4.57;3.35;;;;;;;;;;5128909;27;20061;-75
2023/09/24 21:34:36;;;;;;;4.88;3.85;;;;;;;;;;5112750;27;20054;-77
2023/09/24 21:37:10;;;;;;;7.28;3.70;;;;;;;;;;5139816;27;20035;-79
2023/09/24 21:39:43;;;;;;;5.28;3.50;;;;;;;;;;5138407;27;20071;-74
2023/09/24 21:42:09;;;;;;;9.88;4.03;;;;;;;;;;5130219;27;20549;-74
2023/09/24 21:44:35;;;;;;;6.32;3.42;;;;;;;;;;5121049;27;20062;-75
2023/09/24 21:47:01;;;;;;;6.63;3.80;;;;;;;;;;5132173;27;20126;-75
2023/09/24 21:49:27;;;;;;;5.00;3.70;;;;;;;;;;5143499;27;20122;-76
2023/09/24 21:51:53;;;;;;;5.45;4.00;;;;;;;;;;5132046;27;20457;-75
2023/09/24 21:54:22;;;;;;;8.02;4.07;;;;;;;;;;5117662;27;20051;-75
2023/09/24 21:56:48;;;;;;;5.20;3.58;;;;;;;;;;5127508;27;20038;-76
2023/09/24 21:59:14;;;;;;;6.72;3.63;;;;;;;;;;5139401;27;20039;-75
2023/09/24 22:01:40;;;;;;;6.60;3.67;;;;;;;;;;5141720;27;20031;-76
2023/09/24 22:04:06;;;;;;;6.13;3.80;;;;;;;;;;5121100;27;20490;-75
2023/09/24 22:06:32;;;;;;;4.93;3.55;;;;;;;;;;5130908;27;20118;-75
2023/09/24 22:08:58;;;;;;;7.07;3.80;;;;;;;;;;5141518;27;20118;-75
2023/09/24 22:11:24;;;;;;;7.25;3.80;;;;;;;;;;5141364;27;20039;-75
2023/09/24 22:13:50;;;;;;;5.30;3.33;;;;;;;;;;5132181;27;20047;-75
2023/09/24 22:16:16;;;;;;;4.85;3.63;;;;;;;;;;5131633;27;20124;-75
2023/09/24 22:18:42;;;;;;;5.68;3.65;;;;;;;;;;5126507;27;20055;-75
2023/09/24 22:21:09;;;;;;;5.00;3.40;;;;;;;;;;5131226;27;20047;-75
2023/09/24 22:23:35;;;;;;;6.00;3.42;;;;;;;;;;5117734;27;20047;-75
2023/09/24 22:26:01;;;;;;;5.10;3.25;;;;;;;;;;5129927;27;20052;-75
2023/09/24 22:28:27;;;;;;;4.70;3.75;;;;;;;;;;5113097;27;20035;-75
2023/09/24 22:31:03;;;;;;;4.40;3.60;;;;;;;;;;5101151;27;20403;-75
2023/09/24 22:33:29;;;;;;;6.57;3.78;;;;;;;;;;5119464;27;20080;-75
2023/09/24 22:35:55;;;;;;;6.20;3.70;;;;;;;;;;5127061;27;20393;-76
2023/09/24 22:38:21;;;;;;;5.13;3.50;;;;;;;;;;5137965;27;20057;-75
2023/09/24 22:40:47;;;;;;;4.78;3.38;;;;;;;;;;5142190;27;20038;-75
2023/09/24 22:43:13;;;;;;;4.95;3.30;;;;;;;;;;5123174;27;20179;-75
2023/09/24 22:45:40;;;;;;;5.03;3.45;;;;;;;;;;5124297;27;20125;-75
2023/09/24 22:48:06;;;;;;;6.85;3.85;;;;;;;;;;5130124;27;20119;-75
2023/09/24 22:50:32;;;;;;;6.93;3.70;;;;;;;;;;5124248;27;20061;-75
2023/09/24 22:52:59;;;;;;;4.85;3.88;;;;;;;;;;5132937;27;20389;-75
2023/09/24 22:55:25;;;;;;;6.97;3.55;;;;;;;;;;5124531;27;20043;-75
2023/09/24 22:57:51;;;;;;;4.47;3.42;;;;;;;;;;5136095;27;20046;-75
2023/09/24 23:00:17;;;;;;;6.80;3.75;;;;;;;;;;5148216;27;20051;-75
2023/09/24 23:02:43;;;;;;;4.18;3.40;;;;;;;;;;5137945;27;20050;-75
2023/09/24 23:05:13;;;;;;;6.22;3.70;;;;;;;;;;5138088;27;20096;-75
2023/09/24 23:07:39;;;;;;;5.35;3.95;;;;;;;;;;5149983;27;20153;-75
2023/09/24 23:10:05;;;;;;;5.57;3.72;;;;;;;;;;5128502;27;20046;-75
2023/09/24 23:12:32;;;;;;;6.10;3.65;;;;;;;;;;5150886;27;20410;-75
2023/09/24 23:14:58;;;;;;;7.30;3.80;;;;;;;;;;5146404;27;20035;-75
2023/09/24 23:17:24;;;;;;;4.60;3.63;;;;;;;;;;5138674;27;20043;-75
2023/09/24 23:19:50;;;;;;;5.22;3.85;;;;;;;;;;5132662;27;20103;-75
2023/09/24 23:22:16;;;;;;;7.05;4.18;;;;;;;;;;5133447;27;20474;-75
2023/09/24 23:24:48;;;;;;;5.30;3.63;;;;;;;;;;5147876;27;20108;-75
2023/09/24 23:27:14;;;;;;;6.25;3.95;;;;;;;;;;5145717;27;20041;-75
2023/09/24 23:29:40;;;;;;;8.55;3.65;;;;;;;;;;5131850;27;20046;-75
2023/09/24 23:32:06;;;;;;;4.72;3.80;;;;;;;;;;5148426;27;20034;-75
2023/09/24 23:34:32;;;;;;;5.85;3.92;;;;;;;;;;5137189;27;20038;-75
2023/09/24 23:36:59;;;;;;;7.22;3.97;;;;;;;;;;5134637;27;20039;-75
2023/09/24 23:39:30;;;;;;;6.63;4.00;;;;;;;;;;5151733;27;20059;-75
2023/09/24 23:41:56;;;;;;;6.72;4.47;;;;;;;;;;5145110;27;20039;-75
2023/09/24 23:44:22;;;;;;;4.90;3.60;;;;;;;;;;5148380;27;20065;-75
2023/09/24 23:46:51;;;;;;;7.07;3.85;;;;;;;;;;5151763;27;20478;-75
2023/09/24 23:49:17;;;;;;;4.28;3.72;;;;;;;;;;5134294;27;20088;-75
2023/09/24 23:51:43;;;;;;;5.18;3.78;;;;;;;;;;5133539;27;20086;-75
2023/09/24 23:54:10;;;;;;;6.40;3.70;;;;;;;;;;5144420;27;20043;-75
2023/09/24 23:56:36;;;;;;;5.05;3.85;;;;;;;;;;5144512;27;20039;-75
2023/09/24 23:59:03;;;;;;;7.13;3.90;;;;;;;;;;5143906;27;20046;-75
